Terminal Aerodrome Forecast
Issued by NWS

Home | Current Version | Previous Version | Text Only | Print | Product List | Glossary On
Versions: 1 2 3 4 5 6 7 8 9 10 11 12 13 14 15
000
FTUS42 KTBW 231120
TAFRSW
TAF
KRSW 231120Z 2312/2412 02004KT 6SM BR SCT050 BKN200
     FM231400 07009KT P6SM FEW025 SCT200
     FM231800 06010G15KT P6SM SCT025 BKN050
     FM232100 07013G18KT P6SM VCSH SCT025 BKN050
     FM240300 06010G15KT P6SM FEW030 SCT250
     FM240700 05008KT P6SM FEW020 FEW250=

USA.gov is the U.S. government's official web portal to all federal, state and local government web resources and services.